Albion, Pennsylvania
Current Conditions -  °F | °C
As of 6:51 AM on Monday 20 Oct 2014 (Local Time) from KERI Reporting Station
Broken Clouds Broken Clouds  
Wind Chill: 41°   Ceiling: 10000
Heat Index: 46°   Visibility: 10mi
Dew Point: 35°   Wind: 10mph
Humidity: 66%   Direction: 180°S
Pressure: 29.94"   Gusts: NA
Location:  41.89°N, 80.36°W
Report Text: KERI 201051Z 18009KT 10SM BKN100 08/02 A2994 RMK AO2 SLP142 T00780017 $
Loading
Personal Weather Stations






























Interactive Weather Map
Tropical Storm Tracking
New forecast layout! Learn more

10-Day Weather Forecast

Advertisements
Track Severe Weather on mobile